sensor_id;sensor_type;location;lat;lon;timestamp;P1;durP1;ratioP1;P2;durP2;ratioP2
39540;SDS011;25219;52.244;21.006;2023-11-22T00:02:17;11.68;;;5.57;;
39540;SDS011;25219;52.244;21.006;2023-11-22T00:04:42;10.60;;;5.05;;
39540;SDS011;25219;52.244;21.006;2023-11-22T00:07:07;9.23;;;5.37;;
39540;SDS011;25219;52.244;21.006;2023-11-22T00:09:33;12.18;;;5.93;;
39540;SDS011;25219;52.244;21.006;2023-11-22T00:11:58;12.13;;;5.57;;
39540;SDS011;25219;52.244;21.006;2023-11-22T00:14:25;8.00;;;4.50;;
39540;SDS011;25219;52.244;21.006;2023-11-22T00:16:51;7.65;;;4.35;;
39540;SDS011;25219;52.244;21.006;2023-11-22T00:19:16;12.50;;;5.18;;
39540;SDS011;25219;52.244;21.006;2023-11-22T00:21:43;10.88;;;5.07;;
39540;SDS011;25219;52.244;21.006;2023-11-22T00:24:08;11.75;;;5.70;;
39540;SDS011;25219;52.244;21.006;2023-11-22T00:26:33;11.32;;;5.05;;
39540;SDS011;25219;52.244;21.006;2023-11-22T00:28:58;10.67;;;5.27;;
39540;SDS011;25219;52.244;21.006;2023-11-22T00:31:24;11.43;;;5.40;;
39540;SDS011;25219;52.244;21.006;2023-11-22T00:33:49;8.00;;;4.20;;
39540;SDS011;25219;52.244;21.006;2023-11-22T00:36:14;9.57;;;4.93;;
39540;SDS011;25219;52.244;21.006;2023-11-22T00:38:41;10.27;;;5.30;;
39540;SDS011;25219;52.244;21.006;2023-11-22T00:41:06;10.38;;;5.18;;
39540;SDS011;25219;52.244;21.006;2023-11-22T00:43:32;10.60;;;4.50;;
39540;SDS011;25219;52.244;21.006;2023-11-22T00:45:57;13.63;;;4.82;;
39540;SDS011;25219;52.244;21.006;2023-11-22T00:48:23;12.82;;;5.13;;
39540;SDS011;25219;52.244;21.006;2023-11-22T00:50:48;8.90;;;5.03;;
39540;SDS011;25219;52.244;21.006;2023-11-22T00:53:13;10.38;;;5.03;;
39540;SDS011;25219;52.244;21.006;2023-11-22T00:55:39;8.95;;;4.53;;
39540;SDS011;25219;52.244;21.006;2023-11-22T00:58:04;10.05;;;4.93;;
39540;SDS011;25219;52.244;21.006;2023-11-22T01:00:30;10.48;;;5.15;;
39540;SDS011;25219;52.244;21.006;2023-11-22T01:02:55;9.45;;;4.60;;
39540;SDS011;25219;52.244;21.006;2023-11-22T01:05:20;10.00;;;4.90;;
39540;SDS011;25219;52.244;21.006;2023-11-22T01:07:47;12.43;;;5.28;;
39540;SDS011;25219;52.244;21.006;2023-11-22T01:10:12;9.68;;;4.85;;
39540;SDS011;25219;52.244;21.006;2023-11-22T01:12:38;8.32;;;4.38;;
39540;SDS011;25219;52.244;21.006;2023-11-22T01:15:03;8.73;;;4.53;;
39540;SDS011;25219;52.244;21.006;2023-11-22T01:17:30;8.77;;;4.57;;
39540;SDS011;25219;52.244;21.006;2023-11-22T01:19:56;9.82;;;4.65;;
39540;SDS011;25219;52.244;21.006;2023-11-22T01:22:22;9.30;;;4.47;;
39540;SDS011;25219;52.244;21.006;2023-11-22T01:24:47;11.70;;;4.68;;
39540;SDS011;25219;52.244;21.006;2023-11-22T01:27:13;14.50;;;4.90;;
39540;SDS011;25219;52.244;21.006;2023-11-22T01:29:38;9.80;;;4.43;;
39540;SDS011;25219;52.244;21.006;2023-11-22T01:32:03;9.10;;;4.22;;
39540;SDS011;25219;52.244;21.006;2023-11-22T01:34:29;10.32;;;4.25;;
39540;SDS011;25219;52.244;21.006;2023-11-22T01:36:55;10.25;;;4.53;;
39540;SDS011;25219;52.244;21.006;2023-11-22T01:39:20;9.23;;;4.30;;
39540;SDS011;25219;52.244;21.006;2023-11-22T01:41:45;8.50;;;4.30;;
39540;SDS011;25219;52.244;21.006;2023-11-22T01:44:11;8.55;;;4.35;;
39540;SDS011;25219;52.244;21.006;2023-11-22T01:46:37;10.68;;;4.10;;
39540;SDS011;25219;52.244;21.006;2023-11-22T01:49:02;10.07;;;3.88;;
39540;SDS011;25219;52.244;21.006;2023-11-22T01:51:27;8.90;;;3.92;;
39540;SDS011;25219;52.244;21.006;2023-11-22T01:53:54;10.57;;;3.95;;
39540;SDS011;25219;52.244;21.006;2023-11-22T01:56:20;13.05;;;3.70;;
39540;SDS011;25219;52.244;21.006;2023-11-22T01:58:46;8.55;;;3.67;;
39540;SDS011;25219;52.244;21.006;2023-11-22T02:01:12;6.75;;;3.50;;
39540;SDS011;25219;52.244;21.006;2023-11-22T02:03:37;7.05;;;4.13;;
39540;SDS011;25219;52.244;21.006;2023-11-22T02:06:03;10.75;;;3.53;;
39540;SDS011;25219;52.244;21.006;2023-11-22T02:08:28;6.82;;;3.80;;
39540;SDS011;25219;52.244;21.006;2023-11-22T02:10:59;5.88;;;3.45;;
39540;SDS011;25219;52.244;21.006;2023-11-22T02:13:25;5.97;;;3.17;;
39540;SDS011;25219;52.244;21.006;2023-11-22T02:15:51;7.13;;;3.38;;
39540;SDS011;25219;52.244;21.006;2023-11-22T02:18:17;5.80;;;3.28;;
39540;SDS011;25219;52.244;21.006;2023-11-22T02:20:42;6.53;;;3.70;;
39540;SDS011;25219;52.244;21.006;2023-11-22T02:23:08;7.57;;;4.27;;
39540;SDS011;25219;52.244;21.006;2023-11-22T02:25:34;6.13;;;3.70;;
39540;SDS011;25219;52.244;21.006;2023-11-22T02:27:59;7.05;;;3.53;;
39540;SDS011;25219;52.244;21.006;2023-11-22T02:30:24;8.88;;;3.47;;
39540;SDS011;25219;52.244;21.006;2023-11-22T02:32:50;8.25;;;3.53;;
39540;SDS011;25219;52.244;21.006;2023-11-22T02:35:15;6.32;;;3.42;;
39540;SDS011;25219;52.244;21.006;2023-11-22T02:37:42;5.85;;;3.20;;
39540;SDS011;25219;52.244;21.006;2023-11-22T02:42:42;5.78;;;3.05;;
39540;SDS011;25219;52.244;21.006;2023-11-22T02:45:08;6.75;;;3.90;;
39540;SDS011;25219;52.244;21.006;2023-11-22T02:47:33;6.10;;;3.72;;
39540;SDS011;25219;52.244;21.006;2023-11-22T02:49:59;5.47;;;3.35;;
39540;SDS011;25219;52.244;21.006;2023-11-22T02:52:24;7.93;;;3.47;;
39540;SDS011;25219;52.244;21.006;2023-11-22T02:54:50;8.60;;;3.42;;
39540;SDS011;25219;52.244;21.006;2023-11-22T02:57:15;6.75;;;3.90;;
39540;SDS011;25219;52.244;21.006;2023-11-22T02:59:41;5.63;;;3.13;;
39540;SDS011;25219;52.244;21.006;2023-11-22T03:02:06;6.07;;;3.15;;
39540;SDS011;25219;52.244;21.006;2023-11-22T03:04:32;9.00;;;3.50;;
39540;SDS011;25219;52.244;21.006;2023-11-22T03:06:57;5.95;;;2.95;;
39540;SDS011;25219;52.244;21.006;2023-11-22T03:09:28;7.67;;;3.80;;
39540;SDS011;25219;52.244;21.006;2023-11-22T03:11:54;6.93;;;3.88;;
39540;SDS011;25219;52.244;21.006;2023-11-22T03:14:20;8.82;;;4.25;;
39540;SDS011;25219;52.244;21.006;2023-11-22T03:16:45;8.57;;;3.97;;
39540;SDS011;25219;52.244;21.006;2023-11-22T03:19:10;9.82;;;3.95;;
39540;SDS011;25219;52.244;21.006;2023-11-22T03:21:38;10.20;;;3.35;;
39540;SDS011;25219;52.244;21.006;2023-11-22T03:24:03;8.93;;;3.50;;
39540;SDS011;25219;52.244;21.006;2023-11-22T03:26:29;8.60;;;3.50;;
39540;SDS011;25219;52.244;21.006;2023-11-22T03:28:54;6.38;;;3.47;;
39540;SDS011;25219;52.244;21.006;2023-11-22T03:31:19;5.72;;;3.22;;
39540;SDS011;25219;52.244;21.006;2023-11-22T03:33:45;8.52;;;3.40;;
39540;SDS011;25219;52.244;21.006;2023-11-22T03:36:10;6.57;;;3.65;;
39540;SDS011;25219;52.244;21.006;2023-11-22T03:38:36;4.95;;;3.25;;
39540;SDS011;25219;52.244;21.006;2023-11-22T03:41:01;6.20;;;3.13;;
39540;SDS011;25219;52.244;21.006;2023-11-22T03:43:26;7.05;;;3.42;;
39540;SDS011;25219;52.244;21.006;2023-11-22T03:45:51;5.07;;;3.17;;
39540;SDS011;25219;52.244;21.006;2023-11-22T03:48:17;5.47;;;3.35;;
39540;SDS011;25219;52.244;21.006;2023-11-22T03:50:42;6.82;;;3.38;;
39540;SDS011;25219;52.244;21.006;2023-11-22T03:53:07;6.03;;;3.20;;
39540;SDS011;25219;52.244;21.006;2023-11-22T03:55:32;6.72;;;3.72;;
39540;SDS011;25219;52.244;21.006;2023-11-22T03:57:58;7.57;;;3.55;;
39540;SDS011;25219;52.244;21.006;2023-11-22T04:00:23;6.63;;;3.08;;
39540;SDS011;25219;52.244;21.006;2023-11-22T04:02:49;5.32;;;3.47;;
39540;SDS011;25219;52.244;21.006;2023-11-22T04:05:14;14.43;;;5.28;;
39540;SDS011;25219;52.244;21.006;2023-11-22T04:07:40;7.18;;;3.40;;
39540;SDS011;25219;52.244;21.006;2023-11-22T04:10:06;6.65;;;3.28;;
39540;SDS011;25219;52.244;21.006;2023-11-22T04:12:31;7.20;;;3.85;;
39540;SDS011;25219;52.244;21.006;2023-11-22T04:14:57;6.70;;;3.60;;
39540;SDS011;25219;52.244;21.006;2023-11-22T04:17:22;6.22;;;3.55;;
39540;SDS011;25219;52.244;21.006;2023-11-22T04:19:48;8.80;;;3.53;;
39540;SDS011;25219;52.244;21.006;2023-11-22T04:22:13;5.78;;;2.97;;
39540;SDS011;25219;52.244;21.006;2023-11-22T04:24:38;6.78;;;3.70;;
39540;SDS011;25219;52.244;21.006;2023-11-22T04:27:04;7.57;;;3.55;;
39540;SDS011;25219;52.244;21.006;2023-11-22T04:29:29;7.95;;;3.70;;
39540;SDS011;25219;52.244;21.006;2023-11-22T04:31:54;6.20;;;3.50;;
39540;SDS011;25219;52.244;21.006;2023-11-22T04:34:20;6.40;;;3.50;;
39540;SDS011;25219;52.244;21.006;2023-11-22T04:36:45;5.35;;;3.28;;
39540;SDS011;25219;52.244;21.006;2023-11-22T04:39:11;13.65;;;4.20;;
39540;SDS011;25219;52.244;21.006;2023-11-22T04:41:38;6.18;;;3.60;;
39540;SDS011;25219;52.244;21.006;2023-11-22T04:44:03;5.65;;;3.67;;
39540;SDS011;25219;52.244;21.006;2023-11-22T04:46:29;8.82;;;3.78;;
39540;SDS011;25219;52.244;21.006;2023-11-22T04:48:54;6.13;;;3.35;;
39540;SDS011;25219;52.244;21.006;2023-11-22T04:51:20;7.93;;;3.85;;
39540;SDS011;25219;52.244;21.006;2023-11-22T04:53:45;7.28;;;3.53;;
39540;SDS011;25219;52.244;21.006;2023-11-22T04:56:10;7.57;;;3.60;;
39540;SDS011;25219;52.244;21.006;2023-11-22T04:58:36;5.38;;;3.30;;
39540;SDS011;25219;52.244;21.006;2023-11-22T05:01:01;8.02;;;3.83;;
39540;SDS011;25219;52.244;21.006;2023-11-22T05:03:27;8.05;;;3.40;;
39540;SDS011;25219;52.244;21.006;2023-11-22T05:05:52;9.25;;;3.90;;
39540;SDS011;25219;52.244;21.006;2023-11-22T05:08:17;10.15;;;3.72;;
39540;SDS011;25219;52.244;21.006;2023-11-22T05:10:43;7.22;;;3.85;;
39540;SDS011;25219;52.244;21.006;2023-11-22T05:13:09;7.78;;;3.60;;
39540;SDS011;25219;52.244;21.006;2023-11-22T05:15:34;7.20;;;3.72;;
39540;SDS011;25219;52.244;21.006;2023-11-22T05:17:59;6.38;;;3.75;;
39540;SDS011;25219;52.244;21.006;2023-11-22T05:20:25;7.07;;;3.58;;
39540;SDS011;25219;52.244;21.006;2023-11-22T05:22:50;8.45;;;3.65;;
39540;SDS011;25219;52.244;21.006;2023-11-22T05:25:15;7.70;;;3.65;;
39540;SDS011;25219;52.244;21.006;2023-11-22T05:27:41;7.38;;;3.22;;
39540;SDS011;25219;52.244;21.006;2023-11-22T05:30:06;6.43;;;3.05;;
39540;SDS011;25219;52.244;21.006;2023-11-22T05:32:31;7.30;;;3.22;;
39540;SDS011;25219;52.244;21.006;2023-11-22T05:34:57;8.70;;;3.72;;
39540;SDS011;25219;52.244;21.006;2023-11-22T05:37:22;10.48;;;5.13;;
39540;SDS011;25219;52.244;21.006;2023-11-22T05:39:47;7.10;;;3.50;;
39540;SDS011;25219;52.244;21.006;2023-11-22T05:42:12;5.68;;;3.53;;
39540;SDS011;25219;52.244;21.006;2023-11-22T05:44:38;5.95;;;3.70;;
39540;SDS011;25219;52.244;21.006;2023-11-22T05:47:03;6.10;;;3.40;;
39540;SDS011;25219;52.244;21.006;2023-11-22T05:49:28;10.45;;;4.53;;
39540;SDS011;25219;52.244;21.006;2023-11-22T05:51:53;7.40;;;4.15;;
39540;SDS011;25219;52.244;21.006;2023-11-22T05:54:19;7.85;;;4.40;;
39540;SDS011;25219;52.244;21.006;2023-11-22T05:56:44;6.93;;;3.50;;
39540;SDS011;25219;52.244;21.006;2023-11-22T05:59:09;7.60;;;4.05;;
39540;SDS011;25219;52.244;21.006;2023-11-22T06:01:34;8.85;;;3.78;;
39540;SDS011;25219;52.244;21.006;2023-11-22T06:03:59;7.32;;;3.42;;
39540;SDS011;25219;52.244;21.006;2023-11-22T06:06:25;6.72;;;3.33;;
39540;SDS011;25219;52.244;21.006;2023-11-22T06:08:50;7.68;;;3.95;;
39540;SDS011;25219;52.244;21.006;2023-11-22T06:11:15;7.93;;;4.10;;
39540;SDS011;25219;52.244;21.006;2023-11-22T06:13:41;7.32;;;3.42;;
39540;SDS011;25219;52.244;21.006;2023-11-22T06:16:07;11.18;;;4.50;;
39540;SDS011;25219;52.244;21.006;2023-11-22T06:18:34;7.80;;;4.13;;
39540;SDS011;25219;52.244;21.006;2023-11-22T06:21:05;8.50;;;3.92;;
39540;SDS011;25219;52.244;21.006;2023-11-22T06:23:30;11.20;;;3.90;;
39540;SDS011;25219;52.244;21.006;2023-11-22T06:25:55;7.97;;;4.13;;
39540;SDS011;25219;52.244;21.006;2023-11-22T06:28:21;7.03;;;4.00;;
39540;SDS011;25219;52.244;21.006;2023-11-22T06:30:47;11.45;;;5.82;;
39540;SDS011;25219;52.244;21.006;2023-11-22T06:33:12;11.35;;;4.60;;
39540;SDS011;25219;52.244;21.006;2023-11-22T06:35:38;9.98;;;5.22;;
39540;SDS011;25219;52.244;21.006;2023-11-22T06:38:03;10.07;;;4.00;;
39540;SDS011;25219;52.244;21.006;2023-11-22T06:40:28;6.88;;;4.07;;
39540;SDS011;25219;52.244;21.006;2023-11-22T06:42:54;11.30;;;4.90;;
39540;SDS011;25219;52.244;21.006;2023-11-22T06:45:20;12.13;;;4.43;;
39540;SDS011;25219;52.244;21.006;2023-11-22T06:47:46;10.52;;;6.45;;
39540;SDS011;25219;52.244;21.006;2023-11-22T06:50:11;9.60;;;4.15;;
39540;SDS011;25219;52.244;21.006;2023-11-22T06:52:40;10.52;;;4.93;;
39540;SDS011;25219;52.244;21.006;2023-11-22T06:55:06;6.80;;;4.00;;
39540;SDS011;25219;52.244;21.006;2023-11-22T06:57:37;13.05;;;5.60;;
39540;SDS011;25219;52.244;21.006;2023-11-22T07:00:06;12.75;;;4.63;;
39540;SDS011;25219;52.244;21.006;2023-11-22T07:02:34;14.45;;;4.78;;
39540;SDS011;25219;52.244;21.006;2023-11-22T07:05:00;8.35;;;4.30;;
39540;SDS011;25219;52.244;21.006;2023-11-22T07:07:25;9.43;;;4.35;;
39540;SDS011;25219;52.244;21.006;2023-11-22T07:09:50;10.73;;;5.47;;
39540;SDS011;25219;52.244;21.006;2023-11-22T07:12:16;7.85;;;4.22;;
39540;SDS011;25219;52.244;21.006;2023-11-22T07:14:41;16.92;;;5.63;;
39540;SDS011;25219;52.244;21.006;2023-11-22T07:17:08;12.57;;;6.05;;
39540;SDS011;25219;52.244;21.006;2023-11-22T07:19:33;8.82;;;4.40;;
39540;SDS011;25219;52.244;21.006;2023-11-22T07:22:03;12.18;;;5.15;;
39540;SDS011;25219;52.244;21.006;2023-11-22T07:24:29;12.82;;;5.47;;
39540;SDS011;25219;52.244;21.006;2023-11-22T07:26:59;10.57;;;5.65;;
39540;SDS011;25219;52.244;21.006;2023-11-22T07:29:25;11.00;;;5.35;;
39540;SDS011;25219;52.244;21.006;2023-11-22T07:31:51;13.82;;;5.75;;
39540;SDS011;25219;52.244;21.006;2023-11-22T07:34:16;15.88;;;5.57;;
39540;SDS011;25219;52.244;21.006;2023-11-22T07:36:43;16.55;;;5.22;;
39540;SDS011;25219;52.244;21.006;2023-11-22T07:39:09;13.02;;;5.53;;
39540;SDS011;25219;52.244;21.006;2023-11-22T07:41:36;11.63;;;5.88;;
39540;SDS011;25219;52.244;21.006;2023-11-22T07:44:02;11.77;;;5.63;;
39540;SDS011;25219;52.244;21.006;2023-11-22T07:46:27;17.90;;;6.47;;
39540;SDS011;25219;52.244;21.006;2023-11-22T07:48:52;13.60;;;6.70;;
39540;SDS011;25219;52.244;21.006;2023-11-22T07:51:18;12.80;;;5.47;;
39540;SDS011;25219;52.244;21.006;2023-11-22T07:53:43;12.55;;;6.10;;
39540;SDS011;25219;52.244;21.006;2023-11-22T07:56:08;16.90;;;6.13;;
39540;SDS011;25219;52.244;21.006;2023-11-22T07:58:34;12.65;;;5.80;;
39540;SDS011;25219;52.244;21.006;2023-11-22T08:00:59;17.92;;;6.70;;
39540;SDS011;25219;52.244;21.006;2023-11-22T08:03:25;12.27;;;6.18;;
39540;SDS011;25219;52.244;21.006;2023-11-22T08:05:53;13.23;;;7.10;;
39540;SDS011;25219;52.244;21.006;2023-11-22T08:08:20;9.15;;;5.75;;
39540;SDS011;25219;52.244;21.006;2023-11-22T08:10:46;11.95;;;5.90;;
39540;SDS011;25219;52.244;21.006;2023-11-22T08:13:12;15.00;;;6.07;;
39540;SDS011;25219;52.244;21.006;2023-11-22T08:15:38;13.55;;;6.07;;
39540;SDS011;25219;52.244;21.006;2023-11-22T08:18:03;15.57;;;6.22;;
39540;SDS011;25219;52.244;21.006;2023-11-22T08:20:28;13.95;;;6.78;;
39540;SDS011;25219;52.244;21.006;2023-11-22T08:22:53;12.55;;;6.25;;
39540;SDS011;25219;52.244;21.006;2023-11-22T08:25:19;12.73;;;5.50;;
39540;SDS011;25219;52.244;21.006;2023-11-22T08:27:44;12.73;;;6.05;;
39540;SDS011;25219;52.244;21.006;2023-11-22T08:30:09;20.10;;;5.90;;
39540;SDS011;25219;52.244;21.006;2023-11-22T08:32:44;12.90;;;5.22;;
39540;SDS011;25219;52.244;21.006;2023-11-22T08:35:13;14.95;;;5.75;;
39540;SDS011;25219;52.244;21.006;2023-11-22T08:37:39;12.40;;;5.68;;
39540;SDS011;25219;52.244;21.006;2023-11-22T08:40:06;15.90;;;6.18;;
39540;SDS011;25219;52.244;21.006;2023-11-22T08:42:31;16.17;;;6.75;;
39540;SDS011;25219;52.244;21.006;2023-11-22T08:44:57;15.32;;;6.43;;
39540;SDS011;25219;52.244;21.006;2023-11-22T08:47:22;13.38;;;5.75;;
39540;SDS011;25219;52.244;21.006;2023-11-22T08:49:47;17.52;;;6.57;;
39540;SDS011;25219;52.244;21.006;2023-11-22T08:52:13;12.88;;;5.80;;
39540;SDS011;25219;52.244;21.006;2023-11-22T08:54:38;12.20;;;5.60;;
39540;SDS011;25219;52.244;21.006;2023-11-22T08:57:04;15.13;;;5.80;;
39540;SDS011;25219;52.244;21.006;2023-11-22T08:59:31;13.95;;;6.07;;
39540;SDS011;25219;52.244;21.006;2023-11-22T09:01:57;15.43;;;6.18;;
39540;SDS011;25219;52.244;21.006;2023-11-22T09:04:23;16.30;;;7.30;;
39540;SDS011;25219;52.244;21.006;2023-11-22T09:06:51;16.15;;;6.88;;
39540;SDS011;25219;52.244;21.006;2023-11-22T09:09:16;19.98;;;6.40;;
39540;SDS011;25219;52.244;21.006;2023-11-22T09:11:41;20.33;;;7.50;;
39540;SDS011;25219;52.244;21.006;2023-11-22T09:14:06;14.95;;;7.35;;
39540;SDS011;25219;52.244;21.006;2023-11-22T09:16:38;15.70;;;6.85;;
39540;SDS011;25219;52.244;21.006;2023-11-22T09:19:06;16.17;;;7.15;;
39540;SDS011;25219;52.244;21.006;2023-11-22T09:21:34;17.13;;;6.47;;
39540;SDS011;25219;52.244;21.006;2023-11-22T09:24:00;16.48;;;7.10;;
39540;SDS011;25219;52.244;21.006;2023-11-22T09:26:25;14.38;;;6.57;;
39540;SDS011;25219;52.244;21.006;2023-11-22T09:28:50;15.30;;;7.07;;
39540;SDS011;25219;52.244;21.006;2023-11-22T09:31:16;18.00;;;7.18;;
39540;SDS011;25219;52.244;21.006;2023-11-22T09:33:45;12.48;;;6.38;;
39540;SDS011;25219;52.244;21.006;2023-11-22T09:36:11;14.85;;;6.68;;
39540;SDS011;25219;52.244;21.006;2023-11-22T09:38:37;18.92;;;6.93;;
39540;SDS011;25219;52.244;21.006;2023-11-22T09:41:02;17.20;;;6.95;;
39540;SDS011;25219;52.244;21.006;2023-11-22T09:43:28;13.23;;;6.38;;
39540;SDS011;25219;52.244;21.006;2023-11-22T09:45:54;13.40;;;6.88;;
39540;SDS011;25219;52.244;21.006;2023-11-22T09:48:20;21.25;;;7.43;;
39540;SDS011;25219;52.244;21.006;2023-11-22T09:53:22;16.02;;;6.50;;
39540;SDS011;25219;52.244;21.006;2023-11-22T09:55:50;20.00;;;7.22;;
39540;SDS011;25219;52.244;21.006;2023-11-22T09:58:16;14.95;;;7.05;;
39540;SDS011;25219;52.244;21.006;2023-11-22T10:00:41;14.38;;;6.47;;
39540;SDS011;25219;52.244;21.006;2023-11-22T10:03:07;15.20;;;7.05;;
39540;SDS011;25219;52.244;21.006;2023-11-22T10:05:32;14.48;;;6.85;;
39540;SDS011;25219;52.244;21.006;2023-11-22T10:07:58;16.35;;;6.45;;
39540;SDS011;25219;52.244;21.006;2023-11-22T10:10:24;14.98;;;7.70;;
39540;SDS011;25219;52.244;21.006;2023-11-22T10:12:53;13.95;;;6.53;;
39540;SDS011;25219;52.244;21.006;2023-11-22T10:15:20;17.52;;;7.07;;
39540;SDS011;25219;52.244;21.006;2023-11-22T10:17:47;15.77;;;6.53;;
39540;SDS011;25219;52.244;21.006;2023-11-22T10:20:18;13.10;;;5.55;;
39540;SDS011;25219;52.244;21.006;2023-11-22T10:22:44;15.50;;;5.63;;
39540;SDS011;25219;52.244;21.006;2023-11-22T10:25:10;12.90;;;7.00;;
39540;SDS011;25219;52.244;21.006;2023-11-22T10:27:37;15.15;;;7.10;;
39540;SDS011;25219;52.244;21.006;2023-11-22T10:30:02;14.40;;;6.18;;
39540;SDS011;25219;52.244;21.006;2023-11-22T10:32:28;12.70;;;6.15;;
39540;SDS011;25219;52.244;21.006;2023-11-22T10:34:53;11.48;;;5.13;;
39540;SDS011;25219;52.244;21.006;2023-11-22T10:37:18;7.43;;;4.43;;
39540;SDS011;25219;52.244;21.006;2023-11-22T10:39:50;11.68;;;5.20;;
39540;SDS011;25219;52.244;21.006;2023-11-22T10:42:15;9.65;;;4.38;;
39540;SDS011;25219;52.244;21.006;2023-11-22T10:44:41;8.18;;;4.10;;
39540;SDS011;25219;52.244;21.006;2023-11-22T10:47:06;8.88;;;4.43;;
39540;SDS011;25219;52.244;21.006;2023-11-22T10:49:31;10.13;;;4.38;;
39540;SDS011;25219;52.244;21.006;2023-11-22T10:51:57;9.73;;;4.63;;
39540;SDS011;25219;52.244;21.006;2023-11-22T10:54:22;9.52;;;4.53;;
39540;SDS011;25219;52.244;21.006;2023-11-22T10:56:51;7.53;;;4.13;;
39540;SDS011;25219;52.244;21.006;2023-11-22T10:59:20;12.98;;;4.93;;
39540;SDS011;25219;52.244;21.006;2023-11-22T11:01:47;7.50;;;4.05;;
39540;SDS011;25219;52.244;21.006;2023-11-22T11:04:48;13.05;;;5.00;;
39540;SDS011;25219;52.244;21.006;2023-11-22T11:07:05;12.63;;;5.78;;
39540;SDS011;25219;52.244;21.006;2023-11-22T11:09:34;13.43;;;6.40;;
39540;SDS011;25219;52.244;21.006;2023-11-22T11:12:01;11.00;;;3.95;;
39540;SDS011;25219;52.244;21.006;2023-11-22T11:14:28;9.38;;;4.80;;
39540;SDS011;25219;52.244;21.006;2023-11-22T11:16:53;9.95;;;5.07;;
39540;SDS011;25219;52.244;21.006;2023-11-22T11:19:20;18.50;;;6.47;;
39540;SDS011;25219;52.244;21.006;2023-11-22T11:21:47;10.93;;;5.40;;
39540;SDS011;25219;52.244;21.006;2023-11-22T11:24:12;12.35;;;4.88;;
39540;SDS011;25219;52.244;21.006;2023-11-22T11:26:39;11.43;;;5.22;;
39540;SDS011;25219;52.244;21.006;2023-11-22T11:29:04;17.35;;;5.40;;
39540;SDS011;25219;52.244;21.006;2023-11-22T11:31:33;12.40;;;5.63;;
39540;SDS011;25219;52.244;21.006;2023-11-22T11:34:01;11.60;;;5.47;;
39540;SDS011;25219;52.244;21.006;2023-11-22T11:36:30;9.90;;;5.72;;
39540;SDS011;25219;52.244;21.006;2023-11-22T11:38:59;14.07;;;5.63;;
39540;SDS011;25219;52.244;21.006;2023-11-22T11:41:31;12.20;;;4.78;;
39540;SDS011;25219;52.244;21.006;2023-11-22T11:43:57;12.15;;;5.28;;
39540;SDS011;25219;52.244;21.006;2023-11-22T11:46:23;13.80;;;5.18;;
39540;SDS011;25219;52.244;21.006;2023-11-22T11:48:48;13.15;;;6.28;;
39540;SDS011;25219;52.244;21.006;2023-11-22T11:51:19;13.82;;;6.22;;
39540;SDS011;25219;52.244;21.006;2023-11-22T11:53:44;16.23;;;7.45;;
39540;SDS011;25219;52.244;21.006;2023-11-22T11:56:10;14.95;;;6.57;;
39540;SDS011;25219;52.244;21.006;2023-11-22T11:58:35;12.63;;;6.80;;
39540;SDS011;25219;52.244;21.006;2023-11-22T12:01:01;13.00;;;6.57;;
39540;SDS011;25219;52.244;21.006;2023-11-22T12:03:27;13.38;;;5.95;;
39540;SDS011;25219;52.244;21.006;2023-11-22T12:05:52;15.68;;;6.93;;
39540;SDS011;25219;52.244;21.006;2023-11-22T12:08:18;18.03;;;7.60;;
39540;SDS011;25219;52.244;21.006;2023-11-22T12:10:44;14.02;;;7.22;;
39540;SDS011;25219;52.244;21.006;2023-11-22T12:13:16;14.38;;;6.53;;
39540;SDS011;25219;52.244;21.006;2023-11-22T12:15:41;13.82;;;7.40;;
39540;SDS011;25219;52.244;21.006;2023-11-22T12:18:07;18.38;;;7.30;;
39540;SDS011;25219;52.244;21.006;2023-11-22T12:20:32;11.30;;;5.90;;
39540;SDS011;25219;52.244;21.006;2023-11-22T12:22:58;13.83;;;6.23;;
39540;SDS011;25219;52.244;21.006;2023-11-22T12:25:26;14.77;;;5.85;;
39540;SDS011;25219;52.244;21.006;2023-11-22T12:27:53;11.95;;;5.43;;
39540;SDS011;25219;52.244;21.006;2023-11-22T12:30:31;18.02;;;6.70;;
39540;SDS011;25219;52.244;21.006;2023-11-22T12:33:03;13.07;;;6.10;;
39540;SDS011;25219;52.244;21.006;2023-11-22T12:35:29;16.55;;;6.40;;
39540;SDS011;25219;52.244;21.006;2023-11-22T12:37:55;13.60;;;7.00;;
39540;SDS011;25219;52.244;21.006;2023-11-22T12:40:20;14.90;;;6.72;;
39540;SDS011;25219;52.244;21.006;2023-11-22T12:42:52;13.43;;;7.28;;
39540;SDS011;25219;52.244;21.006;2023-11-22T12:45:21;17.33;;;6.82;;
39540;SDS011;25219;52.244;21.006;2023-11-22T12:47:49;13.38;;;6.80;;
39540;SDS011;25219;52.244;21.006;2023-11-22T12:53:11;15.20;;;6.75;;
39540;SDS011;25219;52.244;21.006;2023-11-22T12:55:38;15.02;;;6.68;;
39540;SDS011;25219;52.244;21.006;2023-11-22T12:58:03;14.68;;;6.95;;
39540;SDS011;25219;52.244;21.006;2023-11-22T13:00:29;13.07;;;6.22;;
39540;SDS011;25219;52.244;21.006;2023-11-22T13:02:57;14.13;;;6.50;;
39540;SDS011;25219;52.244;21.006;2023-11-22T13:05:23;17.88;;;7.20;;
39540;SDS011;25219;52.244;21.006;2023-11-22T13:07:48;16.52;;;7.95;;
39540;SDS011;25219;52.244;21.006;2023-11-22T13:10:14;19.27;;;6.82;;
39540;SDS011;25219;52.244;21.006;2023-11-22T13:12:41;17.05;;;6.88;;
39540;SDS011;25219;52.244;21.006;2023-11-22T13:15:08;12.07;;;6.75;;
39540;SDS011;25219;52.244;21.006;2023-11-22T13:17:34;18.10;;;6.97;;
39540;SDS011;25219;52.244;21.006;2023-11-22T13:19:59;21.67;;;6.38;;
39540;SDS011;25219;52.244;21.006;2023-11-22T13:22:25;13.43;;;7.32;;
39540;SDS011;25219;52.244;21.006;2023-11-22T13:24:50;14.03;;;6.50;;
39540;SDS011;25219;52.244;21.006;2023-11-22T13:27:15;13.45;;;6.60;;
39540;SDS011;25219;52.244;21.006;2023-11-22T13:29:41;12.48;;;6.00;;
39540;SDS011;25219;52.244;21.006;2023-11-22T13:32:09;10.05;;;6.18;;
39540;SDS011;25219;52.244;21.006;2023-11-22T13:34:34;16.63;;;6.18;;
39540;SDS011;25219;52.244;21.006;2023-11-22T13:36:59;11.95;;;6.32;;
39540;SDS011;25219;52.244;21.006;2023-11-22T13:39:25;12.88;;;5.68;;
39540;SDS011;25219;52.244;21.006;2023-11-22T13:41:50;15.55;;;6.03;;
39540;SDS011;25219;52.244;21.006;2023-11-22T13:44:16;15.73;;;6.57;;
39540;SDS011;25219;52.244;21.006;2023-11-22T13:46:43;12.27;;;6.18;;
39540;SDS011;25219;52.244;21.006;2023-11-22T13:49:08;18.80;;;6.25;;
39540;SDS011;25219;52.244;21.006;2023-11-22T13:51:33;11.80;;;5.80;;
39540;SDS011;25219;52.244;21.006;2023-11-22T13:53:59;18.65;;;7.18;;
39540;SDS011;25219;52.244;21.006;2023-11-22T13:56:25;14.20;;;5.93;;
39540;SDS011;25219;52.244;21.006;2023-11-22T13:58:50;13.13;;;6.05;;
39540;SDS011;25219;52.244;21.006;2023-11-22T14:01:15;13.73;;;5.75;;
39540;SDS011;25219;52.244;21.006;2023-11-22T14:03:46;12.80;;;6.15;;
39540;SDS011;25219;52.244;21.006;2023-11-22T14:06:11;11.30;;;5.18;;
39540;SDS011;25219;52.244;21.006;2023-11-22T14:08:41;17.45;;;5.82;;
39540;SDS011;25219;52.244;21.006;2023-11-22T14:11:06;12.73;;;5.75;;
39540;SDS011;25219;52.244;21.006;2023-11-22T14:13:32;12.18;;;6.32;;
39540;SDS011;25219;52.244;21.006;2023-11-22T14:15:57;13.27;;;5.90;;
39540;SDS011;25219;52.244;21.006;2023-11-22T14:18:22;11.73;;;6.13;;
39540;SDS011;25219;52.244;21.006;2023-11-22T14:20:48;13.35;;;6.38;;
39540;SDS011;25219;52.244;21.006;2023-11-22T14:23:13;14.85;;;6.53;;
39540;SDS011;25219;52.244;21.006;2023-11-22T14:25:38;14.73;;;6.13;;
39540;SDS011;25219;52.244;21.006;2023-11-22T14:28:03;13.95;;;5.65;;